createdAt,value
2022-08-03T00:03:20.928Z,22.15
2022-08-03T00:08:22.433Z,22.22
2022-08-03T00:13:28.875Z,22.18
2022-08-03T00:18:30.280Z,21.88
2022-08-03T00:23:52.478Z,21.89
2022-08-03T00:28:53.254Z,21.92
2022-08-03T00:33:59.132Z,21.87
2022-08-03T00:39:04.628Z,21.86
2022-08-03T00:44:06.089Z,21.45
2022-08-03T00:49:08.090Z,21.50
2022-08-03T00:54:10.301Z,21.65
2022-08-03T00:59:12.083Z,21.59
2022-08-03T01:04:15.777Z,21.55
2022-08-03T01:09:36.178Z,21.48
2022-08-03T01:14:44.494Z,21.37
2022-08-03T01:20:08.129Z,21.30
2022-08-03T01:25:54.511Z,21.23
2022-08-03T01:31:01.444Z,21.11
2022-08-03T01:36:12.815Z,21.12
2022-08-03T01:41:20.089Z,21.09
2022-08-03T01:46:22.833Z,21.07
2022-08-03T01:51:57.924Z,21.09
2022-08-03T01:56:48.987Z,20.98
2022-08-03T02:02:15.311Z,20.90
2022-08-03T02:07:14.169Z,20.97
2022-08-03T02:12:16.454Z,21.00
2022-08-03T02:17:39.563Z,20.95
2022-08-03T02:22:42.343Z,20.93
2022-08-03T02:27:52.756Z,20.93
2022-08-03T02:32:55.814Z,20.88
2022-08-03T02:38:02.236Z,20.77
2022-08-03T02:43:08.243Z,20.82
2022-08-03T02:48:11.782Z,20.73
2022-08-03T02:53:14.295Z,20.76
2022-08-03T02:58:19.656Z,20.76
2022-08-03T03:03:21.952Z,20.70
2022-08-03T03:08:26.829Z,20.71
2022-08-03T03:13:31.279Z,20.58
2022-08-03T03:18:34.186Z,20.63
2022-08-03T03:23:38.420Z,20.62
2022-08-03T03:28:40.311Z,20.49
2022-08-03T03:33:41.873Z,20.45
2022-08-03T03:38:43.349Z,20.46
2022-08-03T03:43:45.036Z,20.37
2022-08-03T03:48:46.631Z,20.39
2022-08-03T03:54:01.842Z,20.32
2022-08-03T03:59:03.347Z,20.29
2022-08-03T04:04:24.950Z,20.23
2022-08-03T04:09:45.313Z,20.27
2022-08-03T04:14:48.691Z,20.28
2022-08-03T04:19:53.700Z,20.17
2022-08-03T04:25:09.075Z,20.24
2022-08-03T04:30:10.965Z,20.02
2022-08-03T04:35:12.535Z,20.17
2022-08-03T04:40:18.556Z,20.25
2022-08-03T04:45:25.345Z,20.20
2022-08-03T04:50:28.061Z,20.30
2022-08-03T04:55:31.080Z,20.38
2022-08-03T05:00:32.780Z,20.40
2022-08-03T05:05:48.904Z,20.37
2022-08-03T05:10:51.222Z,20.48
2022-08-03T05:15:52.705Z,20.54
2022-08-03T05:20:54.147Z,20.71
2022-08-03T05:25:55.687Z,20.78
2022-08-03T05:30:57.239Z,20.93
2022-08-03T05:36:03.907Z,21.06
2022-08-03T05:41:23.708Z,21.08
2022-08-03T05:46:27.506Z,21.28
2022-08-03T05:51:29.019Z,21.46
2022-08-03T05:56:30.481Z,21.61
2022-08-03T06:01:33.132Z,21.77
2022-08-03T06:06:34.612Z,21.74
2022-08-03T06:11:36.841Z,22.32
2022-08-03T06:16:38.357Z,22.67
2022-08-03T06:21:39.967Z,22.88
2022-08-03T06:26:41.383Z,23.12
2022-08-03T06:31:42.812Z,23.27
2022-08-03T06:36:44.244Z,23.53
2022-08-03T06:41:45.711Z,23.84
2022-08-03T06:46:47.695Z,24.10
2022-08-03T06:52:06.127Z,24.26
2022-08-03T06:57:08.302Z,24.56
2022-08-03T07:02:10.333Z,24.79
2022-08-03T07:07:11.776Z,25.00
2022-08-03T07:12:13.274Z,25.18
2022-08-03T07:17:14.756Z,25.34
2022-08-03T07:22:16.522Z,25.59
2022-08-03T07:27:18.436Z,25.84
2022-08-03T07:32:20.003Z,25.97
2022-08-03T07:37:21.458Z,26.24
2022-08-03T07:42:23.878Z,26.42
2022-08-03T07:47:35.603Z,26.67
2022-08-03T07:52:49.544Z,26.91
2022-08-03T07:58:12.103Z,26.98
2022-08-03T08:03:13.579Z,26.98
2022-08-03T08:08:15.088Z,27.36
2022-08-03T08:13:16.582Z,27.58
2022-08-03T08:18:18.455Z,27.65
2022-08-03T08:23:42.015Z,27.75
2022-08-03T08:28:44.363Z,27.94
2022-08-03T08:34:03.494Z,27.97
2022-08-03T08:39:05.374Z,28.25
2022-08-03T08:44:08.098Z,28.38
2022-08-03T08:49:10.660Z,28.42
2022-08-03T08:54:13.833Z,28.53
2022-08-03T08:59:15.720Z,28.73
2022-08-03T09:04:17.734Z,28.75
2022-08-03T09:10:00.378Z,28.82
2022-08-03T09:14:54.776Z,29.07
2022-08-03T09:20:10.291Z,29.18
2022-08-03T09:25:24.416Z,29.30
2022-08-03T09:30:34.732Z,29.42
2022-08-03T09:35:53.733Z,29.48
2022-08-03T09:41:00.316Z,29.57
2022-08-03T09:46:04.104Z,29.55
2022-08-03T09:51:12.779Z,29.63
2022-08-03T09:56:34.684Z,29.60
2022-08-03T10:01:37.639Z,29.66
2022-08-03T10:06:39.195Z,29.62
2022-08-03T10:11:42.528Z,29.73
2022-08-03T10:16:44.656Z,29.78
2022-08-03T10:22:07.705Z,29.81
2022-08-03T10:27:11.352Z,29.74
2022-08-03T10:32:24.513Z,29.86
2022-08-03T10:37:30.363Z,29.77
2022-08-03T10:42:31.957Z,29.78
2022-08-03T10:47:35.249Z,29.78
2022-08-03T10:52:53.193Z,29.89
2022-08-03T10:57:58.250Z,29.77
2022-08-03T11:03:16.666Z,29.81
2022-08-03T11:08:25.311Z,29.60
2022-08-03T11:13:31.073Z,29.83
2022-08-03T11:18:32.723Z,29.83
2022-08-03T11:24:04.780Z,29.87
2022-08-03T11:29:27.413Z,29.85
2022-08-03T11:34:28.830Z,30.02
2022-08-03T11:39:45.687Z,29.96
2022-08-03T11:44:47.885Z,30.05
2022-08-03T11:49:51.993Z,30.05
2022-08-03T11:54:56.545Z,29.93
2022-08-03T11:59:58.938Z,29.97
2022-08-03T12:05:01.337Z,30.04
2022-08-03T12:10:11.780Z,30.02
2022-08-03T12:15:13.375Z,30.12
2022-08-03T12:20:34.516Z,30.12
2022-08-03T12:25:40.006Z,30.17
2022-08-03T12:30:42.312Z,30.18
2022-08-03T12:35:52.254Z,30.22
2022-08-03T12:41:00.356Z,30.39
2022-08-03T12:46:16.228Z,30.33
2022-08-03T12:51:17.647Z,30.28
2022-08-03T12:56:20.522Z,30.30
2022-08-03T13:01:27.593Z,30.31
2022-08-03T13:06:29.074Z,30.41
2022-08-03T13:11:57.600Z,30.56
2022-08-03T13:16:52.092Z,30.55
2022-08-03T13:22:04.029Z,30.47
2022-08-03T13:28:02.628Z,30.44
2022-08-03T13:32:28.768Z,30.72
2022-08-03T13:37:32.082Z,30.55
2022-08-03T13:42:35.432Z,30.60
2022-08-03T13:47:37.751Z,30.51
2022-08-03T13:52:39.227Z,30.51
2022-08-03T13:58:04.970Z,30.52
2022-08-03T14:03:12.226Z,30.34
2022-08-03T14:08:15.131Z,30.45
2022-08-03T14:13:17.792Z,30.48
2022-08-03T14:18:28.839Z,30.43
2022-08-03T14:23:37.553Z,30.64
2022-08-03T14:28:38.992Z,30.72
2022-08-03T14:33:40.414Z,30.66
2022-08-03T14:38:41.848Z,30.69
2022-08-03T14:44:01.277Z,30.69
2022-08-03T14:50:38.229Z,30.56
2022-08-03T14:54:26.578Z,30.55
2022-08-03T14:59:28.078Z,30.50
2022-08-03T15:04:49.448Z,30.52
2022-08-03T15:09:50.883Z,30.55
2022-08-03T15:14:52.322Z,30.49
2022-08-03T15:20:02.166Z,30.56
2022-08-03T15:26:03.872Z,30.58
2022-08-03T15:30:38.396Z,30.70
2022-08-03T15:35:39.849Z,30.53
2022-08-03T15:40:41.558Z,30.51
2022-08-03T15:45:44.880Z,30.51
2022-08-03T15:50:46.273Z,30.43
2022-08-03T15:55:47.718Z,30.59
2022-08-03T16:00:49.186Z,30.46
2022-08-03T16:05:50.708Z,30.48
2022-08-03T16:10:52.194Z,30.41
2022-08-03T16:15:54.389Z,30.37
2022-08-03T16:20:55.834Z,30.54
2022-08-03T16:25:57.421Z,30.56
2022-08-03T16:30:58.838Z,30.52
2022-08-03T16:36:00.536Z,30.55
2022-08-03T16:41:02.027Z,30.58
2022-08-03T16:46:03.536Z,30.66
2022-08-03T16:51:04.940Z,30.45
2022-08-03T16:56:10.088Z,30.62
2022-08-03T17:01:24.448Z,30.50
2022-08-03T17:06:34.540Z,30.53
2022-08-03T17:11:47.291Z,30.56
2022-08-03T17:16:51.935Z,30.43
2022-08-03T17:22:10.641Z,30.50
2022-08-03T17:28:41.619Z,30.54
2022-08-03T17:32:42.297Z,30.58
2022-08-03T17:37:58.731Z,30.49
2022-08-03T17:44:12.901Z,30.47
2022-08-03T17:48:27.099Z,30.62
2022-08-03T17:53:32.948Z,30.48
2022-08-03T17:58:54.609Z,30.50
2022-08-03T18:03:59.970Z,30.40
2022-08-03T18:09:05.411Z,30.27
2022-08-03T18:14:29.591Z,30.37
2022-08-03T18:20:02.156Z,30.25
2022-08-03T18:25:00.471Z,30.27
2022-08-03T18:30:09.604Z,30.09
2022-08-03T18:35:15.002Z,30.20
2022-08-03T18:40:20.692Z,30.09
2022-08-03T18:45:57.489Z,29.95
2022-08-03T18:51:06.820Z,29.87
2022-08-03T18:56:20.670Z,29.84
2022-08-03T19:01:59.782Z,29.71
2022-08-03T19:07:08.075Z,29.54
2022-08-03T19:12:40.513Z,29.35
2022-08-03T19:17:50.091Z,29.13
2022-08-03T19:22:56.274Z,29.19
2022-08-03T19:28:02.820Z,29.11
2022-08-03T19:33:08.082Z,28.98
2022-08-03T19:38:10.483Z,28.84
2022-08-03T19:43:25.201Z,28.77
2022-08-03T19:48:36.526Z,28.74
2022-08-03T19:53:45.197Z,28.60
2022-08-03T19:58:46.942Z,28.53
2022-08-03T20:03:54.860Z,28.41
2022-08-03T20:08:58.688Z,28.37
2022-08-03T20:14:00.248Z,28.22
2022-08-03T20:19:01.778Z,28.09
2022-08-03T20:24:24.342Z,27.98
2022-08-03T20:29:42.653Z,27.90
2022-08-03T20:34:53.008Z,27.88
2022-08-03T20:39:54.754Z,27.80
2022-08-03T20:45:04.285Z,27.78
2022-08-03T20:50:08.915Z,27.73
2022-08-03T20:55:12.882Z,27.66
2022-08-03T21:00:17.793Z,27.64
2022-08-03T21:05:21.194Z,27.51
2022-08-03T21:10:44.135Z,27.46
2022-08-03T21:16:07.055Z,27.29
2022-08-03T21:21:15.362Z,27.26
2022-08-03T21:26:19.998Z,27.24
2022-08-03T21:31:25.751Z,27.20
2022-08-03T21:36:31.403Z,27.06
2022-08-03T21:41:33.792Z,27.01
2022-08-03T21:46:37.953Z,27.02
2022-08-03T21:51:39.874Z,26.97
2022-08-03T21:56:43.048Z,26.85
2022-08-03T22:01:49.098Z,26.77
2022-08-03T22:06:52.747Z,26.78
2022-08-03T22:11:54.912Z,26.71
2022-08-03T22:16:56.600Z,26.60
2022-08-03T22:21:59.813Z,26.56
2022-08-03T22:27:21.350Z,26.47
2022-08-03T22:32:22.865Z,26.40
2022-08-03T22:37:29.082Z,26.21
2022-08-03T22:42:35.088Z,26.17
2022-08-03T22:47:38.343Z,26.08
2022-08-03T22:52:43.898Z,26.06
2022-08-03T22:57:45.343Z,25.99
2022-08-03T23:03:00.277Z,25.88
2022-08-03T23:08:03.842Z,25.85
2022-08-03T23:13:06.933Z,25.73
2022-08-03T23:18:09.414Z,25.50
2022-08-03T23:23:11.079Z,25.63
2022-08-03T23:28:15.907Z,25.53
2022-08-03T23:33:17.986Z,25.47
2022-08-03T23:38:22.627Z,25.39
2022-08-03T23:43:51.264Z,25.36
2022-08-03T23:48:53.657Z,25.35
2022-08-03T23:54:03.338Z,25.30
2022-08-03T23:59:21.759Z,25.28
